createdAt,value
2023-01-29T00:00:29.403Z,33.20
2023-01-29T00:02:33.175Z,32.50
2023-01-29T00:04:35.534Z,30.95
2023-01-29T00:06:37.888Z,31.33
2023-01-29T00:08:40.019Z,34.78
2023-01-29T00:10:42.178Z,40.53
2023-01-29T00:12:44.544Z,33.17
2023-01-29T00:14:46.675Z,33.75
2023-01-29T00:16:48.891Z,32.03
2023-01-29T00:18:51.183Z,34.75
2023-01-29T00:20:53.410Z,32.85
2023-01-29T00:22:55.653Z,35.50
2023-01-29T00:24:57.845Z,32.97
2023-01-29T00:26:59.988Z,37.83
2023-01-29T00:29:02.849Z,33.08
2023-01-29T00:31:12.172Z,33.15
2023-01-29T00:33:14.459Z,36.53
2023-01-29T00:35:16.706Z,35.33
2023-01-29T00:37:18.835Z,40.85
2023-01-29T00:39:33.671Z,38.72
2023-01-29T00:42:00.119Z,39.25
2023-01-29T00:44:21.341Z,42.05
2023-01-29T00:46:23.614Z,36.15
2023-01-29T00:48:25.882Z,36.13
2023-01-29T00:50:28.081Z,37.13
2023-01-29T00:52:30.453Z,34.90
2023-01-29T00:54:33.276Z,36.05
2023-01-29T00:56:36.857Z,37.15
2023-01-29T00:58:38.997Z,35.20
2023-01-29T01:00:41.352Z,35.88
2023-01-29T01:03:01.908Z,37.10
2023-01-29T01:05:06.134Z,35.25
2023-01-29T01:07:08.393Z,35.30
2023-01-29T01:09:30.219Z,35.75
2023-01-29T01:11:34.204Z,36.75
2023-01-29T01:13:36.394Z,33.97
2023-01-29T01:15:39.626Z,34.55
2023-01-29T01:17:41.803Z,31.23
2023-01-29T01:19:44.031Z,33.78
2023-01-29T01:21:48.338Z,34.00
2023-01-29T01:23:52.057Z,30.15
2023-01-29T01:25:54.294Z,31.00
2023-01-29T01:27:57.375Z,29.00
2023-01-29T01:30:02.832Z,33.97
2023-01-29T01:32:05.145Z,29.88
2023-01-29T01:34:07.415Z,31.30
2023-01-29T01:36:09.839Z,31.27
2023-01-29T01:38:12.105Z,29.42
2023-01-29T01:40:18.382Z,28.95
2023-01-29T01:42:20.847Z,30.02
2023-01-29T01:44:41.860Z,31.77
2023-01-29T01:46:43.996Z,28.92
2023-01-29T01:48:47.436Z,27.83
2023-01-29T01:50:51.643Z,29.63
2023-01-29T01:52:56.310Z,29.25
2023-01-29T01:54:59.279Z,26.50
2023-01-29T01:57:16.160Z,26.40
2023-01-29T01:59:19.139Z,28.08
2023-01-29T02:01:30.741Z,26.55
2023-01-29T02:03:52.993Z,26.30
2023-01-29T02:06:15.152Z,25.98
2023-01-29T02:08:39.752Z,27.20
2023-01-29T02:10:46.180Z,26.48
2023-01-29T02:12:48.515Z,26.58
2023-01-29T02:14:51.974Z,25.35
2023-01-29T02:16:54.216Z,25.27
2023-01-29T02:18:56.447Z,30.25
2023-01-29T02:21:04.643Z,27.45
2023-01-29T02:23:06.776Z,25.10
2023-01-29T02:25:27.537Z,25.17
2023-01-29T02:27:37.343Z,27.20
2023-01-29T02:29:39.460Z,25.70
2023-01-29T02:31:50.912Z,26.65
2023-01-29T02:34:01.791Z,24.00
2023-01-29T02:36:12.370Z,26.98
2023-01-29T02:38:18.017Z,25.58
2023-01-29T02:40:20.334Z,23.70
2023-01-29T02:42:25.384Z,25.80
2023-01-29T02:44:27.534Z,25.40
2023-01-29T02:46:34.862Z,24.08
2023-01-29T02:48:41.312Z,25.08
2023-01-29T02:50:50.969Z,28.75
2023-01-29T02:52:54.221Z,25.67
2023-01-29T02:55:03.087Z,25.00
2023-01-29T02:57:16.249Z,26.42
2023-01-29T02:59:21.290Z,27.15
2023-01-29T03:01:32.113Z,28.20
2023-01-29T03:03:39.863Z,25.20
2023-01-29T03:05:58.528Z,23.33
2023-01-29T03:08:04.268Z,26.90
2023-01-29T03:10:12.547Z,26.30
2023-01-29T03:12:28.434Z,26.88
2023-01-29T03:14:50.503Z,25.60
2023-01-29T03:16:53.688Z,26.63
2023-01-29T03:18:59.263Z,27.63
2023-01-29T03:21:25.622Z,25.70
2023-01-29T03:23:48.582Z,25.08
2023-01-29T03:26:11.225Z,24.70
2023-01-29T03:28:34.563Z,25.23
2023-01-29T03:30:57.679Z,27.60
2023-01-29T03:33:01.692Z,28.27
2023-01-29T03:35:06.012Z,28.50
2023-01-29T03:37:09.712Z,30.27
2023-01-29T03:39:12.573Z,29.17
2023-01-29T03:41:33.345Z,25.00
2023-01-29T03:43:40.576Z,32.47
2023-01-29T03:45:55.141Z,26.05
2023-01-29T03:48:03.566Z,26.02
2023-01-29T03:50:23.952Z,27.05
2023-01-29T03:52:52.237Z,26.48
2023-01-29T03:55:06.921Z,27.17
2023-01-29T03:57:18.033Z,28.85
2023-01-29T03:59:32.443Z,31.48
2023-01-29T04:01:41.293Z,27.08
2023-01-29T04:03:52.950Z,26.92
2023-01-29T04:05:58.621Z,27.33
2023-01-29T04:08:05.774Z,28.55
2023-01-29T04:10:13.184Z,25.33
2023-01-29T04:12:17.727Z,26.48
2023-01-29T04:14:19.916Z,26.58
2023-01-29T04:16:24.781Z,28.13
2023-01-29T04:18:27.035Z,26.75
2023-01-29T04:20:29.816Z,26.52
2023-01-29T04:22:36.269Z,26.88
2023-01-29T04:24:38.885Z,26.20
2023-01-29T04:26:43.823Z,29.00
2023-01-29T04:28:46.047Z,26.17
2023-01-29T04:30:48.300Z,29.95
2023-01-29T04:33:09.118Z,27.48
2023-01-29T04:35:29.905Z,23.70
2023-01-29T04:37:44.747Z,25.27
2023-01-29T04:39:50.956Z,26.98
2023-01-29T04:42:08.244Z,25.80
2023-01-29T04:44:19.554Z,28.35
2023-01-29T04:46:28.753Z,26.00
2023-01-29T04:48:45.208Z,27.85
2023-01-29T04:50:59.844Z,27.35
2023-01-29T04:53:05.053Z,29.60
2023-01-29T04:55:13.660Z,26.52
2023-01-29T04:57:23.141Z,23.63
2023-01-29T04:59:31.472Z,28.23
2023-01-29T05:01:34.508Z,27.60
2023-01-29T05:03:38.228Z,26.27
2023-01-29T05:05:44.961Z,26.95
2023-01-29T05:07:48.206Z,27.48
2023-01-29T05:09:51.008Z,27.58
2023-01-29T05:11:53.494Z,27.15
2023-01-29T05:16:03.031Z,24.67
2023-01-29T05:18:08.934Z,24.83
2023-01-29T05:20:12.060Z,27.15
2023-01-29T05:22:16.173Z,25.17
2023-01-29T05:24:22.302Z,25.77
2023-01-29T05:26:43.268Z,28.15
2023-01-29T05:28:45.433Z,27.23
2023-01-29T05:30:49.243Z,26.92
2023-01-29T05:32:51.395Z,26.40
2023-01-29T05:34:53.518Z,28.35
2023-01-29T05:36:55.871Z,24.65
2023-01-29T05:38:57.991Z,26.45
2023-01-29T05:41:00.289Z,26.73
2023-01-29T05:43:02.750Z,26.17
2023-01-29T05:45:05.349Z,26.48
2023-01-29T05:47:07.653Z,26.65
2023-01-29T05:49:10.039Z,27.45
2023-01-29T05:51:12.287Z,27.05
2023-01-29T05:53:14.449Z,28.05
2023-01-29T05:55:16.686Z,26.27
2023-01-29T05:57:18.885Z,24.70
2023-01-29T05:59:21.103Z,26.45
2023-01-29T06:01:25.194Z,24.77
2023-01-29T06:03:27.320Z,26.10
2023-01-29T06:05:29.479Z,26.27
2023-01-29T06:07:31.776Z,26.52
2023-01-29T06:09:33.891Z,25.48
2023-01-29T06:11:36.090Z,23.13
2023-01-29T06:13:38.691Z,26.13
2023-01-29T06:15:41.176Z,24.30
2023-01-29T06:19:45.425Z,24.20
2023-01-29T06:21:47.667Z,24.05
2023-01-29T06:23:49.817Z,25.70
2023-01-29T06:25:51.958Z,25.70
2023-01-29T06:27:54.110Z,22.80
2023-01-29T06:29:56.278Z,26.73
2023-01-29T06:31:58.642Z,24.10
2023-01-29T06:34:00.855Z,22.25
2023-01-29T06:36:04.611Z,24.90
2023-01-29T06:38:06.795Z,20.23
2023-01-29T06:40:09.132Z,18.92
2023-01-29T06:42:11.291Z,21.17
2023-01-29T06:44:13.512Z,21.77
2023-01-29T06:46:15.658Z,25.05
2023-01-29T06:48:18.086Z,25.52
2023-01-29T06:50:20.285Z,25.50
2023-01-29T06:52:22.508Z,26.52
2023-01-29T06:54:24.617Z,25.95
2023-01-29T06:56:26.803Z,23.90
2023-01-29T06:58:28.940Z,22.95
2023-01-29T07:00:31.597Z,22.38
2023-01-29T07:02:33.920Z,24.10
2023-01-29T07:04:37.804Z,25.10
2023-01-29T07:06:40.083Z,23.92
2023-01-29T07:08:42.256Z,27.63
2023-01-29T07:10:44.391Z,22.70
2023-01-29T07:12:46.540Z,25.30
2023-01-29T07:14:48.683Z,24.88
2023-01-29T07:16:51.019Z,23.73
2023-01-29T07:18:53.186Z,23.85
2023-01-29T07:20:55.939Z,22.35
2023-01-29T07:22:58.620Z,23.20
2023-01-29T07:25:00.765Z,25.65
2023-01-29T07:27:02.893Z,27.17
2023-01-29T07:29:05.716Z,26.63
2023-01-29T07:31:09.014Z,23.17
2023-01-29T07:33:11.437Z,20.63
2023-01-29T07:35:13.581Z,19.52
2023-01-29T07:37:15.764Z,14.93
2023-01-29T07:39:17.888Z,19.27
2023-01-29T07:41:20.090Z,17.90
2023-01-29T07:43:24.758Z,14.85
2023-01-29T07:45:26.903Z,12.13
2023-01-29T07:47:29.059Z,10.23
2023-01-29T07:49:31.311Z,12.38
2023-01-29T07:51:33.453Z,11.65
2023-01-29T07:53:36.946Z,17.60
2023-01-29T07:55:39.198Z,18.02
2023-01-29T07:57:41.396Z,20.00
2023-01-29T07:59:43.545Z,19.42
2023-01-29T08:01:45.724Z,20.88
2023-01-29T08:03:50.046Z,18.92
2023-01-29T08:05:52.756Z,18.73
2023-01-29T08:08:06.082Z,21.10
2023-01-29T08:10:12.362Z,21.17
2023-01-29T08:12:14.859Z,20.52
2023-01-29T08:16:19.154Z,20.80
2023-01-29T08:18:21.326Z,19.17
2023-01-29T08:20:23.499Z,23.20
2023-01-29T08:22:25.657Z,22.92
2023-01-29T08:24:36.091Z,21.58
2023-01-29T08:26:49.901Z,23.23
2023-01-29T08:28:52.025Z,21.13
2023-01-29T08:30:54.826Z,19.00
2023-01-29T08:32:57.156Z,15.82
2023-01-29T08:34:59.379Z,12.15
2023-01-29T08:37:01.575Z,11.48
2023-01-29T08:39:03.801Z,12.15
2023-01-29T08:41:06.353Z,11.48
2023-01-29T08:45:12.142Z,11.43
2023-01-29T08:49:16.398Z,11.15
2023-01-29T08:51:18.662Z,13.88
2023-01-29T08:53:24.632Z,12.73
2023-01-29T08:55:27.128Z,11.50
2023-01-29T08:57:29.300Z,13.90
2023-01-29T08:59:31.453Z,15.10
2023-01-29T09:01:33.693Z,13.30
2023-01-29T09:03:36.002Z,12.60
2023-01-29T09:05:39.049Z,15.38
2023-01-29T09:07:41.351Z,13.00
2023-01-29T09:09:43.625Z,12.77
2023-01-29T09:11:45.843Z,12.15
2023-01-29T09:13:48.002Z,16.05
2023-01-29T09:15:50.187Z,13.05
2023-01-29T09:17:52.464Z,13.45
2023-01-29T09:19:54.784Z,12.00
2023-01-29T09:21:57.065Z,13.48
2023-01-29T09:23:59.287Z,10.93
2023-01-29T09:26:01.633Z,13.07
2023-01-29T09:28:04.229Z,10.68
2023-01-29T09:30:06.817Z,11.32
2023-01-29T09:34:11.221Z,10.70
2023-01-29T09:36:13.526Z,13.93
2023-01-29T09:38:15.723Z,11.95
2023-01-29T09:40:39.989Z,12.45
2023-01-29T09:42:48.405Z,11.00
2023-01-29T09:44:50.715Z,10.52
2023-01-29T09:46:54.920Z,12.32
2023-01-29T09:49:04.014Z,14.02
2023-01-29T09:51:13.671Z,15.32
2023-01-29T09:53:16.030Z,14.63
2023-01-29T09:55:47.668Z,15.18
2023-01-29T09:57:52.459Z,12.43
2023-01-29T09:59:55.165Z,13.65
2023-01-29T10:02:06.892Z,11.65
2023-01-29T10:04:27.538Z,12.27
2023-01-29T10:06:48.474Z,12.10
2023-01-29T10:09:02.730Z,10.57
2023-01-29T10:11:07.495Z,10.45
2023-01-29T10:13:27.908Z,10.63
2023-01-29T10:15:53.386Z,12.32
2023-01-29T10:18:30.867Z,12.52
2023-01-29T10:20:51.468Z,10.05
2023-01-29T10:23:12.013Z,11.18
2023-01-29T10:25:15.916Z,8.65
2023-01-29T10:27:19.432Z,10.15
2023-01-29T10:29:22.213Z,11.43
2023-01-29T10:31:25.167Z,10.13
2023-01-29T10:33:49.430Z,10.20
2023-01-29T10:35:59.032Z,11.63
2023-01-29T10:38:08.063Z,11.02
2023-01-29T10:40:19.895Z,11.20
2023-01-29T10:42:31.747Z,9.20
2023-01-29T10:44:42.858Z,11.15
2023-01-29T10:46:54.880Z,11.30
2023-01-29T10:49:13.868Z,12.65
2023-01-29T10:51:34.510Z,10.75
2023-01-29T10:53:56.898Z,11.35
2023-01-29T10:56:22.615Z,11.95
2023-01-29T10:58:30.693Z,12.55
2023-01-29T11:00:41.998Z,10.48
2023-01-29T11:02:51.275Z,12.35
2023-01-29T11:04:53.640Z,12.50
2023-01-29T11:06:55.763Z,11.20
2023-01-29T11:09:13.304Z,11.48
2023-01-29T11:11:17.362Z,10.80
2023-01-29T11:13:19.719Z,12.55
2023-01-29T11:15:25.315Z,12.23
2023-01-29T11:17:27.698Z,13.57
2023-01-29T11:19:40.935Z,13.10
2023-01-29T11:21:52.442Z,12.20
2023-01-29T11:24:06.964Z,13.32
2023-01-29T11:26:11.703Z,12.95
2023-01-29T11:28:14.030Z,10.93
2023-01-29T11:30:20.356Z,10.80
2023-01-29T11:32:22.559Z,11.90
2023-01-29T11:34:27.647Z,16.80
2023-01-29T11:36:33.020Z,16.58
2023-01-29T11:38:35.235Z,11.52
2023-01-29T11:40:40.935Z,11.32
2023-01-29T11:42:43.061Z,15.23
2023-01-29T11:44:45.290Z,10.07
2023-01-29T11:46:48.281Z,12.63
2023-01-29T11:48:58.971Z,12.13
2023-01-29T11:51:05.707Z,13.23
2023-01-29T11:53:23.476Z,13.10
2023-01-29T11:55:49.775Z,11.40
2023-01-29T11:57:59.794Z,11.05
2023-01-29T12:00:07.055Z,10.27
2023-01-29T12:02:12.238Z,10.70
2023-01-29T12:04:20.909Z,10.23
2023-01-29T12:06:34.543Z,10.90
2023-01-29T12:08:40.115Z,10.85
2023-01-29T12:10:43.559Z,13.60
2023-01-29T12:12:45.832Z,12.55
2023-01-29T12:14:47.941Z,11.63
2023-01-29T12:17:13.386Z,10.35
2023-01-29T12:19:15.828Z,13.63
2023-01-29T12:21:17.990Z,11.25
2023-01-29T12:23:39.035Z,13.32
2023-01-29T12:25:41.241Z,12.48
2023-01-29T12:27:54.739Z,14.15
2023-01-29T12:30:00.262Z,12.38
2023-01-29T12:32:02.531Z,12.82
2023-01-29T12:34:20.076Z,12.13
2023-01-29T12:36:22.248Z,12.23
2023-01-29T12:38:25.135Z,14.73
2023-01-29T12:40:30.039Z,14.35
2023-01-29T12:42:32.876Z,19.00
2023-01-29T12:44:42.408Z,12.57
2023-01-29T12:46:50.437Z,12.80
2023-01-29T12:48:53.735Z,12.80
2023-01-29T12:50:56.398Z,14.27
2023-01-29T12:53:21.395Z,12.27
2023-01-29T12:55:25.931Z,14.93
2023-01-29T12:57:36.854Z,13.43
2023-01-29T12:59:43.144Z,15.85
2023-01-29T13:01:50.999Z,13.32
2023-01-29T13:03:57.906Z,11.85
2023-01-29T13:06:01.430Z,10.68
2023-01-29T13:08:22.840Z,14.95
2023-01-29T13:10:29.020Z,14.43
2023-01-29T13:12:31.867Z,14.32
2023-01-29T13:14:43.255Z,13.35
2023-01-29T13:16:48.443Z,16.35
2023-01-29T13:18:56.642Z,12.43
2023-01-29T13:21:00.183Z,13.65
2023-01-29T13:23:06.913Z,13.02
2023-01-29T13:25:13.512Z,10.88
2023-01-29T13:27:26.605Z,12.52
2023-01-29T13:29:29.760Z,12.75
2023-01-29T13:31:41.805Z,12.43
2023-01-29T13:33:44.246Z,13.85
2023-01-29T13:35:46.744Z,11.30
2023-01-29T13:39:52.665Z,10.32
2023-01-29T13:41:55.825Z,11.05
2023-01-29T13:43:57.990Z,11.50
2023-01-29T13:46:05.652Z,11.68
2023-01-29T13:48:27.136Z,10.73
2023-01-29T13:50:29.230Z,11.38
2023-01-29T13:52:43.309Z,12.57
2023-01-29T13:54:57.758Z,10.32
2023-01-29T13:57:00.923Z,9.95
2023-01-29T13:59:05.031Z,9.23
2023-01-29T14:01:07.258Z,12.15
2023-01-29T14:03:11.728Z,12.52
2023-01-29T14:05:32.105Z,12.40
2023-01-29T14:07:40.431Z,11.18
2023-01-29T14:09:42.551Z,11.10
2023-01-29T14:11:48.896Z,11.93
2023-01-29T14:13:52.484Z,11.73
2023-01-29T14:15:57.405Z,10.98
2023-01-29T14:18:01.310Z,11.15
2023-01-29T14:20:16.141Z,11.70
2023-01-29T14:22:22.857Z,11.02
2023-01-29T14:24:29.258Z,10.05
2023-01-29T14:26:45.242Z,10.95
2023-01-29T14:29:18.804Z,10.70
2023-01-29T14:31:31.120Z,12.40
2023-01-29T14:33:37.965Z,13.68
2023-01-29T14:35:40.886Z,11.50
2023-01-29T14:37:46.421Z,11.68
2023-01-29T14:39:52.536Z,13.80
2023-01-29T14:41:54.701Z,16.45
2023-01-29T14:44:15.507Z,14.38
2023-01-29T14:46:37.935Z,11.85
2023-01-29T14:48:46.632Z,16.48
2023-01-29T14:50:50.245Z,9.55
2023-01-29T14:52:53.947Z,10.68
2023-01-29T14:54:59.145Z,12.60
2023-01-29T14:57:05.168Z,12.30
2023-01-29T14:59:17.127Z,12.38
2023-01-29T15:01:38.260Z,14.75
2023-01-29T15:03:40.402Z,22.85
2023-01-29T15:05:42.957Z,21.83
2023-01-29T15:09:48.788Z,24.77
2023-01-29T15:11:56.476Z,35.25
2023-01-29T15:14:06.315Z,38.15
2023-01-29T15:16:26.211Z,31.55
2023-01-29T15:18:37.189Z,15.98
2023-01-29T15:20:40.651Z,18.33
2023-01-29T15:22:45.930Z,12.43
2023-01-29T15:24:49.193Z,17.40
2023-01-29T15:26:51.418Z,40.00
2023-01-29T15:29:03.601Z,31.45
2023-01-29T15:31:09.874Z,24.52
2023-01-29T15:33:14.731Z,17.45
2023-01-29T15:35:17.106Z,16.90
2023-01-29T15:39:24.447Z,14.13
2023-01-29T15:41:26.576Z,15.05
2023-01-29T15:43:29.774Z,12.90
2023-01-29T15:45:33.661Z,12.88
2023-01-29T15:47:37.515Z,12.70
2023-01-29T15:49:40.693Z,13.57
2023-01-29T15:51:43.066Z,14.25
2023-01-29T15:53:48.480Z,14.32
2023-01-29T15:55:51.729Z,13.95
2023-01-29T15:57:54.188Z,14.70
2023-01-29T15:59:58.533Z,12.60
2023-01-29T16:02:19.076Z,13.15
2023-01-29T16:04:24.335Z,16.52
2023-01-29T16:06:26.879Z,15.20
2023-01-29T16:10:32.441Z,12.65
2023-01-29T16:12:35.173Z,14.85
2023-01-29T16:14:37.322Z,16.48
2023-01-29T16:16:39.608Z,15.50
2023-01-29T16:18:57.929Z,17.20
2023-01-29T16:21:05.444Z,16.00
2023-01-29T16:23:08.197Z,14.85
2023-01-29T16:25:13.897Z,16.80
2023-01-29T16:27:16.017Z,17.15
2023-01-29T16:29:19.890Z,24.65
2023-01-29T16:31:24.700Z,15.13
2023-01-29T16:33:34.159Z,18.10
2023-01-29T16:35:36.694Z,16.05
2023-01-29T16:39:44.604Z,18.63
2023-01-29T16:41:52.729Z,16.17
2023-01-29T16:43:57.997Z,15.98
2023-01-29T16:46:04.680Z,14.43
2023-01-29T16:48:25.342Z,12.32
2023-01-29T16:50:40.686Z,15.68
2023-01-29T16:53:01.236Z,17.30
2023-01-29T16:55:12.252Z,14.77
2023-01-29T16:57:16.242Z,16.27
2023-01-29T16:59:26.744Z,16.63
2023-01-29T17:01:30.103Z,13.25
2023-01-29T17:03:33.967Z,15.65
2023-01-29T17:05:37.433Z,14.95
2023-01-29T17:07:39.661Z,14.93
2023-01-29T17:09:42.500Z,17.13
2023-01-29T17:11:44.658Z,15.07
2023-01-29T17:13:46.840Z,15.73
2023-01-29T17:15:49.019Z,13.88
2023-01-29T17:17:51.237Z,18.15
2023-01-29T17:19:53.402Z,17.15
2023-01-29T17:21:56.745Z,14.98
2023-01-29T17:23:58.900Z,15.45
2023-01-29T17:26:01.113Z,14.98
2023-01-29T17:28:03.901Z,14.80
2023-01-29T17:30:06.611Z,14.65
2023-01-29T17:32:09.804Z,14.85
2023-01-29T17:34:14.457Z,16.60
2023-01-29T17:36:18.000Z,13.52
2023-01-29T17:38:26.380Z,18.13
2023-01-29T17:40:32.211Z,14.60
2023-01-29T17:42:34.390Z,15.23
2023-01-29T17:44:45.357Z,16.67
2023-01-29T17:46:47.911Z,16.10
2023-01-29T17:50:53.799Z,16.23
2023-01-29T17:52:55.983Z,19.85
2023-01-29T17:54:58.172Z,16.35
2023-01-29T17:57:00.421Z,18.65
2023-01-29T17:59:02.568Z,16.52
2023-01-29T18:01:04.788Z,17.65
2023-01-29T18:03:06.974Z,12.85
2023-01-29T18:05:09.258Z,15.63
2023-01-29T18:07:11.483Z,17.25
2023-01-29T18:09:15.097Z,15.20
2023-01-29T18:11:17.285Z,16.27
2023-01-29T18:13:19.412Z,15.20
2023-01-29T18:15:21.622Z,16.33
2023-01-29T18:17:24.495Z,15.38
2023-01-29T18:19:31.708Z,17.30
2023-01-29T18:21:33.889Z,17.77
2023-01-29T18:23:36.099Z,17.88
2023-01-29T18:25:38.623Z,16.92
2023-01-29T18:29:42.925Z,18.67
2023-01-29T18:31:45.212Z,15.85
2023-01-29T18:33:47.442Z,20.05
2023-01-29T18:35:49.988Z,19.33
2023-01-29T18:39:54.235Z,13.80
2023-01-29T18:41:56.362Z,16.10
2023-01-29T18:43:58.634Z,16.35
2023-01-29T18:46:00.907Z,15.15
2023-01-29T18:48:03.103Z,17.42
2023-01-29T18:50:05.671Z,17.27
2023-01-29T18:52:08.148Z,16.63
2023-01-29T18:56:13.559Z,15.10
2023-01-29T18:58:27.946Z,16.70
2023-01-29T19:00:36.577Z,17.05
2023-01-29T19:02:38.781Z,20.17
2023-01-29T19:04:41.011Z,15.63
2023-01-29T19:06:43.331Z,17.50
2023-01-29T19:08:45.606Z,17.77
2023-01-29T19:10:47.843Z,17.10
2023-01-29T19:12:49.967Z,16.05
2023-01-29T19:14:52.166Z,17.58
2023-01-29T19:16:54.356Z,16.77
2023-01-29T19:18:56.684Z,17.08
2023-01-29T19:20:59.002Z,18.20
2023-01-29T19:23:01.322Z,17.13
2023-01-29T19:25:04.055Z,15.70
2023-01-29T19:27:06.906Z,18.55
2023-01-29T19:29:09.661Z,17.88
2023-01-29T19:31:11.881Z,17.10
2023-01-29T19:33:14.258Z,19.05
2023-01-29T19:35:16.828Z,17.98
2023-01-29T19:37:19.129Z,19.30
2023-01-29T19:39:21.485Z,16.98
2023-01-29T19:41:23.777Z,18.45
2023-01-29T19:43:30.589Z,22.33
2023-01-29T19:45:32.826Z,20.52
2023-01-29T19:47:51.877Z,19.33
2023-01-29T19:51:58.880Z,20.60
2023-01-29T19:54:02.296Z,21.83
2023-01-29T19:56:04.462Z,18.85
2023-01-29T19:58:06.806Z,21.40
2023-01-29T20:00:12.161Z,22.17
2023-01-29T20:02:14.537Z,21.95
2023-01-29T20:06:20.166Z,27.60
2023-01-29T20:08:23.885Z,23.58
2023-01-29T20:10:27.626Z,24.65
2023-01-29T20:12:30.197Z,27.85
2023-01-29T20:14:32.368Z,21.58
2023-01-29T20:16:36.879Z,26.95
2023-01-29T20:18:39.081Z,24.17
2023-01-29T20:20:45.330Z,25.05
2023-01-29T20:22:47.518Z,21.83
2023-01-29T20:24:49.646Z,24.15
2023-01-29T20:26:51.884Z,24.00
2023-01-29T20:28:54.029Z,22.83
2023-01-29T20:30:58.164Z,22.85
2023-01-29T20:33:00.531Z,23.67
2023-01-29T20:35:02.927Z,25.17
2023-01-29T20:39:07.138Z,22.85
2023-01-29T20:41:16.726Z,24.85
2023-01-29T20:43:18.964Z,26.45
2023-01-29T20:45:22.109Z,26.27
2023-01-29T20:47:24.320Z,23.67
2023-01-29T20:49:28.375Z,24.00
2023-01-29T20:51:30.862Z,25.80
2023-01-29T20:55:35.081Z,20.42
2023-01-29T20:57:38.349Z,26.52
2023-01-29T20:59:40.549Z,28.90
2023-01-29T21:01:43.082Z,26.77
2023-01-29T21:05:47.380Z,25.03
2023-01-29T21:07:49.559Z,25.10
2023-01-29T21:09:51.727Z,32.97
2023-01-29T21:11:54.021Z,27.65
2023-01-29T21:13:57.835Z,34.72
2023-01-29T21:16:00.511Z,29.45
2023-01-29T21:18:04.496Z,33.60
2023-01-29T21:20:08.328Z,29.73
2023-01-29T21:22:10.490Z,28.88
2023-01-29T21:24:13.022Z,30.35
2023-01-29T21:26:15.217Z,28.48
2023-01-29T21:28:17.419Z,29.88
2023-01-29T21:30:20.016Z,30.25
2023-01-29T21:32:22.483Z,30.90
2023-01-29T21:34:24.719Z,30.30
2023-01-29T21:36:26.947Z,27.88
2023-01-29T21:38:29.307Z,30.25
2023-01-29T21:40:31.499Z,30.35
2023-01-29T21:42:52.153Z,29.95
2023-01-29T21:44:54.272Z,31.08
2023-01-29T21:46:56.561Z,30.55
2023-01-29T21:48:58.733Z,35.30
2023-01-29T21:51:00.977Z,32.33
2023-01-29T21:53:03.144Z,32.28
2023-01-29T21:55:06.003Z,30.73
2023-01-29T21:57:11.630Z,36.50
2023-01-29T21:59:13.843Z,32.78
2023-01-29T22:01:38.129Z,31.92
2023-01-29T22:03:38.085Z,33.72
2023-01-29T22:05:40.463Z,28.02
2023-01-29T22:07:42.664Z,31.02
2023-01-29T22:09:44.991Z,31.55
2023-01-29T22:13:49.399Z,22.45
2023-01-29T22:15:55.366Z,30.92
2023-01-29T22:17:57.604Z,29.83
2023-01-29T22:19:59.769Z,29.40
2023-01-29T22:22:02.272Z,31.30
2023-01-29T22:24:04.544Z,31.42
2023-01-29T22:26:08.979Z,29.63
2023-01-29T22:28:11.509Z,31.15
2023-01-29T22:32:16.253Z,34.07
2023-01-29T22:34:18.408Z,32.58
2023-01-29T22:36:20.679Z,30.67
2023-01-29T22:38:23.073Z,33.83
2023-01-29T22:40:25.271Z,31.50
2023-01-29T22:42:27.945Z,32.90
2023-01-29T22:44:30.134Z,31.20
2023-01-29T22:46:32.401Z,27.95
2023-01-29T22:48:34.564Z,31.48
2023-01-29T22:50:36.730Z,27.60
2023-01-29T22:52:39.221Z,28.77
2023-01-29T22:56:43.486Z,30.50
2023-01-29T22:58:45.676Z,28.52
2023-01-29T23:00:51.151Z,28.98
2023-01-29T23:02:53.413Z,28.73
2023-01-29T23:04:55.574Z,31.08
2023-01-29T23:06:57.875Z,36.30
2023-01-29T23:09:00.012Z,30.60
2023-01-29T23:11:14.762Z,32.25
2023-01-29T23:13:17.273Z,33.17
2023-01-29T23:15:19.445Z,34.78
2023-01-29T23:17:21.588Z,34.40
2023-01-29T23:19:23.736Z,37.08
2023-01-29T23:21:27.250Z,38.70
2023-01-29T23:23:29.789Z,33.35
2023-01-29T23:25:50.615Z,35.03
2023-01-29T23:27:52.828Z,35.92
2023-01-29T23:29:55.022Z,34.53
2023-01-29T23:31:57.179Z,31.75
2023-01-29T23:33:59.337Z,33.67
2023-01-29T23:36:01.654Z,34.55
2023-01-29T23:38:03.859Z,35.75
2023-01-29T23:40:06.241Z,33.83
2023-01-29T23:42:08.398Z,36.85
2023-01-29T23:44:10.709Z,35.58
2023-01-29T23:46:12.896Z,32.50
2023-01-29T23:48:15.096Z,37.50
2023-01-29T23:50:17.654Z,36.83
2023-01-29T23:52:20.044Z,36.88
2023-01-29T23:54:22.358Z,36.95
2023-01-29T23:56:24.577Z,35.88
2023-01-29T23:58:26.994Z,36.13
